sensor_id;sensor_type;location;lat;lon;timestamp;pressure;altitude;pressure_sealevel;temperature
75822;BMP180;64454;51.984;9.838;2023-06-22T00:01:18;100538.00;;;19.00
75822;BMP180;64454;51.984;9.838;2023-06-22T00:03:47;100540.00;;;19.00
75822;BMP180;64454;51.984;9.838;2023-06-22T00:06:14;100537.00;;;19.00
75822;BMP180;64454;51.984;9.838;2023-06-22T00:08:41;100541.00;;;19.10
75822;BMP180;64454;51.984;9.838;2023-06-22T00:11:08;100554.00;;;19.00
75822;BMP180;64454;51.984;9.838;2023-06-22T00:13:35;100554.00;;;19.10
75822;BMP180;64454;51.984;9.838;2023-06-22T00:16:02;100547.00;;;19.10
75822;BMP180;64454;51.984;9.838;2023-06-22T00:18:29;100548.00;;;19.20
75822;BMP180;64454;51.984;9.838;2023-06-22T00:20:59;100545.00;;;19.30
75822;BMP180;64454;51.984;9.838;2023-06-22T00:23:26;100536.00;;;19.00
75822;BMP180;64454;51.984;9.838;2023-06-22T00:25:53;100544.00;;;18.80
75822;BMP180;64454;51.984;9.838;2023-06-22T00:28:20;100538.00;;;18.70
75822;BMP180;64454;51.984;9.838;2023-06-22T00:30:49;100544.00;;;18.80
75822;BMP180;64454;51.984;9.838;2023-06-22T00:33:16;100542.00;;;18.90
75822;BMP180;64454;51.984;9.838;2023-06-22T00:35:43;100534.00;;;19.00
75822;BMP180;64454;51.984;9.838;2023-06-22T00:38:11;100521.00;;;18.80
75822;BMP180;64454;51.984;9.838;2023-06-22T00:40:38;100517.00;;;18.80
75822;BMP180;64454;51.984;9.838;2023-06-22T00:43:05;100518.00;;;18.80
75822;BMP180;64454;51.984;9.838;2023-06-22T00:45:32;100513.00;;;18.80
75822;BMP180;64454;51.984;9.838;2023-06-22T00:48:00;100499.00;;;18.80
75822;BMP180;64454;51.984;9.838;2023-06-22T00:50:30;100495.00;;;19.00
75822;BMP180;64454;51.984;9.838;2023-06-22T00:53:00;100496.00;;;18.90
75822;BMP180;64454;51.984;9.838;2023-06-22T00:55:31;100496.00;;;18.90
75822;BMP180;64454;51.984;9.838;2023-06-22T00:57:59;100491.00;;;18.80
75822;BMP180;64454;51.984;9.838;2023-06-22T01:00:26;100489.00;;;18.60
75822;BMP180;64454;51.984;9.838;2023-06-22T01:02:53;100486.00;;;18.60
75822;BMP180;64454;51.984;9.838;2023-06-22T01:05:21;100480.00;;;18.70
75822;BMP180;64454;51.984;9.838;2023-06-22T01:08:12;100472.00;;;18.70
75822;BMP180;64454;51.984;9.838;2023-06-22T01:10:46;100478.00;;;18.70
75822;BMP180;64454;51.984;9.838;2023-06-22T01:13:30;100480.00;;;18.70
75822;BMP180;64454;51.984;9.838;2023-06-22T01:16:03;100476.00;;;18.80
75822;BMP180;64454;51.984;9.838;2023-06-22T01:18:35;100477.00;;;18.90
75822;BMP180;64454;51.984;9.838;2023-06-22T01:21:05;100487.00;;;18.90
75822;BMP180;64454;51.984;9.838;2023-06-22T01:23:51;100489.00;;;18.90
75822;BMP180;64454;51.984;9.838;2023-06-22T01:26:34;100482.00;;;18.80
75822;BMP180;64454;51.984;9.838;2023-06-22T01:29:06;100477.00;;;18.70
75822;BMP180;64454;51.984;9.838;2023-06-22T01:31:34;100475.00;;;18.70
75822;BMP180;64454;51.984;9.838;2023-06-22T01:34:05;100482.00;;;18.80
75822;BMP180;64454;51.984;9.838;2023-06-22T01:36:34;100487.00;;;18.80
75822;BMP180;64454;51.984;9.838;2023-06-22T01:39:04;100469.00;;;18.80
75822;BMP180;64454;51.984;9.838;2023-06-22T01:41:36;100473.00;;;18.70
75822;BMP180;64454;51.984;9.838;2023-06-22T01:44:06;100479.00;;;18.60
75822;BMP180;64454;51.984;9.838;2023-06-22T01:46:35;100469.00;;;18.90
75822;BMP180;64454;51.984;9.838;2023-06-22T01:49:03;100469.00;;;18.80
75822;BMP180;64454;51.984;9.838;2023-06-22T01:51:31;100458.00;;;18.70
75822;BMP180;64454;51.984;9.838;2023-06-22T01:53:58;100461.00;;;18.90
75822;BMP180;64454;51.984;9.838;2023-06-22T01:56:26;100466.00;;;18.90
75822;BMP180;64454;51.984;9.838;2023-06-22T01:59:00;100469.00;;;19.20
75822;BMP180;64454;51.984;9.838;2023-06-22T02:01:38;100464.00;;;18.80
75822;BMP180;64454;51.984;9.838;2023-06-22T02:04:21;100469.00;;;18.70
75822;BMP180;64454;51.984;9.838;2023-06-22T02:06:55;100464.00;;;18.80
75822;BMP180;64454;51.984;9.838;2023-06-22T02:09:25;100472.00;;;18.70
75822;BMP180;64454;51.984;9.838;2023-06-22T02:11:56;100481.00;;;18.80
75822;BMP180;64454;51.984;9.838;2023-06-22T02:14:24;100475.00;;;18.80
75822;BMP180;64454;51.984;9.838;2023-06-22T02:16:53;100472.00;;;18.90
75822;BMP180;64454;51.984;9.838;2023-06-22T02:19:23;100468.00;;;18.90
75822;BMP180;64454;51.984;9.838;2023-06-22T02:21:51;100465.00;;;18.80
75822;BMP180;64454;51.984;9.838;2023-06-22T02:24:20;100470.00;;;18.70
75822;BMP180;64454;51.984;9.838;2023-06-22T02:26:49;100468.00;;;18.80
75822;BMP180;64454;51.984;9.838;2023-06-22T02:29:18;100474.00;;;19.10
75822;BMP180;64454;51.984;9.838;2023-06-22T02:31:45;100474.00;;;18.90
75822;BMP180;64454;51.984;9.838;2023-06-22T02:34:15;100485.00;;;19.00
75822;BMP180;64454;51.984;9.838;2023-06-22T02:36:44;100485.00;;;18.80
75822;BMP180;64454;51.984;9.838;2023-06-22T02:39:20;100493.00;;;18.90
75822;BMP180;64454;51.984;9.838;2023-06-22T02:41:48;100497.00;;;19.10
75822;BMP180;64454;51.984;9.838;2023-06-22T02:44:17;100507.00;;;19.00
75822;BMP180;64454;51.984;9.838;2023-06-22T02:46:46;100501.00;;;19.40
75822;BMP180;64454;51.984;9.838;2023-06-22T02:49:17;100503.00;;;19.20
75822;BMP180;64454;51.984;9.838;2023-06-22T02:51:47;100505.00;;;19.10
75822;BMP180;64454;51.984;9.838;2023-06-22T02:54:16;100510.00;;;19.00
75822;BMP180;64454;51.984;9.838;2023-06-22T02:56:44;100506.00;;;18.70
75822;BMP180;64454;51.984;9.838;2023-06-22T02:59:11;100501.00;;;18.60
75822;BMP180;64454;51.984;9.838;2023-06-22T03:01:39;100506.00;;;18.40
75822;BMP180;64454;51.984;9.838;2023-06-22T03:04:06;100519.00;;;18.50
75822;BMP180;64454;51.984;9.838;2023-06-22T03:06:36;100523.00;;;18.60
75822;BMP180;64454;51.984;9.838;2023-06-22T03:09:04;100530.00;;;18.70
75822;BMP180;64454;51.984;9.838;2023-06-22T03:11:32;100539.00;;;18.90
75822;BMP180;64454;51.984;9.838;2023-06-22T03:14:00;100537.00;;;18.90
75822;BMP180;64454;51.984;9.838;2023-06-22T03:16:27;100540.00;;;18.90
75822;BMP180;64454;51.984;9.838;2023-06-22T03:18:54;100542.00;;;19.00
75822;BMP180;64454;51.984;9.838;2023-06-22T03:21:23;100524.00;;;19.00
75822;BMP180;64454;51.984;9.838;2023-06-22T03:23:51;100518.00;;;19.00
75822;BMP180;64454;51.984;9.838;2023-06-22T03:26:18;100514.00;;;19.00
75822;BMP180;64454;51.984;9.838;2023-06-22T03:28:45;100510.00;;;19.20
75822;BMP180;64454;51.984;9.838;2023-06-22T03:31:12;100515.00;;;19.20
75822;BMP180;64454;51.984;9.838;2023-06-22T03:33:39;100524.00;;;19.20
75822;BMP180;64454;51.984;9.838;2023-06-22T03:36:05;100517.00;;;19.30
75822;BMP180;64454;51.984;9.838;2023-06-22T03:38:32;100516.00;;;19.20
75822;BMP180;64454;51.984;9.838;2023-06-22T03:41:01;100512.00;;;19.10
75822;BMP180;64454;51.984;9.838;2023-06-22T03:43:27;100518.00;;;19.30
75822;BMP180;64454;51.984;9.838;2023-06-22T03:45:54;100505.00;;;19.70
75822;BMP180;64454;51.984;9.838;2023-06-22T03:48:21;100503.00;;;19.40
75822;BMP180;64454;51.984;9.838;2023-06-22T03:50:48;100493.00;;;19.40
75822;BMP180;64454;51.984;9.838;2023-06-22T03:53:14;100498.00;;;19.30
75822;BMP180;64454;51.984;9.838;2023-06-22T03:55:48;100503.00;;;19.30
75822;BMP180;64454;51.984;9.838;2023-06-22T03:58:18;100501.00;;;19.30
75822;BMP180;64454;51.984;9.838;2023-06-22T04:00:45;100501.00;;;19.10
75822;BMP180;64454;51.984;9.838;2023-06-22T04:03:12;100498.00;;;19.00
75822;BMP180;64454;51.984;9.838;2023-06-22T04:05:39;100502.00;;;18.90
75822;BMP180;64454;51.984;9.838;2023-06-22T04:08:07;100496.00;;;19.00
75822;BMP180;64454;51.984;9.838;2023-06-22T04:10:34;100502.00;;;19.20
75822;BMP180;64454;51.984;9.838;2023-06-22T04:13:01;100503.00;;;19.20
75822;BMP180;64454;51.984;9.838;2023-06-22T04:15:29;100508.00;;;19.30
75822;BMP180;64454;51.984;9.838;2023-06-22T04:17:56;100509.00;;;19.30
75822;BMP180;64454;51.984;9.838;2023-06-22T04:20:23;100497.00;;;19.20
75822;BMP180;64454;51.984;9.838;2023-06-22T04:22:52;100504.00;;;19.20
75822;BMP180;64454;51.984;9.838;2023-06-22T04:25:19;100503.00;;;19.40
75822;BMP180;64454;51.984;9.838;2023-06-22T04:27:47;100491.00;;;19.40
75822;BMP180;64454;51.984;9.838;2023-06-22T04:30:14;100504.00;;;19.60
75822;BMP180;64454;51.984;9.838;2023-06-22T04:32:43;100496.00;;;19.80
75822;BMP180;64454;51.984;9.838;2023-06-22T04:35:10;100496.00;;;19.50
75822;BMP180;64454;51.984;9.838;2023-06-22T04:37:37;100497.00;;;19.40
75822;BMP180;64454;51.984;9.838;2023-06-22T04:40:06;100504.00;;;19.40
75822;BMP180;64454;51.984;9.838;2023-06-22T04:42:35;100504.00;;;19.30
75822;BMP180;64454;51.984;9.838;2023-06-22T04:45:03;100504.00;;;19.50
75822;BMP180;64454;51.984;9.838;2023-06-22T04:47:30;100498.00;;;19.50
75822;BMP180;64454;51.984;9.838;2023-06-22T04:49:58;100494.00;;;20.00
75822;BMP180;64454;51.984;9.838;2023-06-22T04:52:25;100493.00;;;20.20
75822;BMP180;64454;51.984;9.838;2023-06-22T04:54:52;100497.00;;;20.00
75822;BMP180;64454;51.984;9.838;2023-06-22T04:57:21;100496.00;;;20.30
75822;BMP180;64454;51.984;9.838;2023-06-22T04:59:58;100500.00;;;20.30
75822;BMP180;64454;51.984;9.838;2023-06-22T05:02:40;100494.00;;;20.50
75822;BMP180;64454;51.984;9.838;2023-06-22T05:05:09;100496.00;;;20.70
75822;BMP180;64454;51.984;9.838;2023-06-22T05:07:40;100490.00;;;20.60
75822;BMP180;64454;51.984;9.838;2023-06-22T05:10:09;100503.00;;;20.10
75822;BMP180;64454;51.984;9.838;2023-06-22T05:12:36;100487.00;;;20.50
75822;BMP180;64454;51.984;9.838;2023-06-22T05:15:04;100496.00;;;20.40
75822;BMP180;64454;51.984;9.838;2023-06-22T05:17:31;100499.00;;;20.10
75822;BMP180;64454;51.984;9.838;2023-06-22T05:19:58;100501.00;;;20.40
75822;BMP180;64454;51.984;9.838;2023-06-22T05:22:26;100495.00;;;20.20
75822;BMP180;64454;51.984;9.838;2023-06-22T05:24:53;100502.00;;;19.90
75822;BMP180;64454;51.984;9.838;2023-06-22T05:27:20;100496.00;;;19.90
75822;BMP180;64454;51.984;9.838;2023-06-22T05:29:46;100495.00;;;19.80
75822;BMP180;64454;51.984;9.838;2023-06-22T05:32:13;100488.00;;;19.90
75822;BMP180;64454;51.984;9.838;2023-06-22T05:34:40;100485.00;;;19.90
75822;BMP180;64454;51.984;9.838;2023-06-22T05:37:07;100486.00;;;19.80
75822;BMP180;64454;51.984;9.838;2023-06-22T05:39:36;100484.00;;;19.80
75822;BMP180;64454;51.984;9.838;2023-06-22T05:42:05;100482.00;;;19.80
75822;BMP180;64454;51.984;9.838;2023-06-22T05:44:32;100483.00;;;19.80
75822;BMP180;64454;51.984;9.838;2023-06-22T05:46:59;100477.00;;;19.60
75822;BMP180;64454;51.984;9.838;2023-06-22T05:49:26;100477.00;;;19.60
75822;BMP180;64454;51.984;9.838;2023-06-22T05:51:55;100476.00;;;19.70
75822;BMP180;64454;51.984;9.838;2023-06-22T05:54:22;100477.00;;;19.40
75822;BMP180;64454;51.984;9.838;2023-06-22T05:56:50;100479.00;;;19.50
75822;BMP180;64454;51.984;9.838;2023-06-22T05:59:19;100481.00;;;19.60
75822;BMP180;64454;51.984;9.838;2023-06-22T06:01:46;100478.00;;;19.50
75822;BMP180;64454;51.984;9.838;2023-06-22T06:04:18;100478.00;;;19.70
75822;BMP180;64454;51.984;9.838;2023-06-22T06:06:46;100483.00;;;19.70
75822;BMP180;64454;51.984;9.838;2023-06-22T06:09:15;100486.00;;;20.00
75822;BMP180;64454;51.984;9.838;2023-06-22T06:11:42;100484.00;;;20.10
75822;BMP180;64454;51.984;9.838;2023-06-22T06:14:11;100489.00;;;20.00
75822;BMP180;64454;51.984;9.838;2023-06-22T06:16:37;100477.00;;;20.00
75822;BMP180;64454;51.984;9.838;2023-06-22T06:19:04;100479.00;;;20.00
75822;BMP180;64454;51.984;9.838;2023-06-22T06:21:31;100484.00;;;20.30
75822;BMP180;64454;51.984;9.838;2023-06-22T06:23:58;100477.00;;;20.40
75822;BMP180;64454;51.984;9.838;2023-06-22T06:26:25;100480.00;;;20.90
75822;BMP180;64454;51.984;9.838;2023-06-22T06:28:56;100480.00;;;21.00
75822;BMP180;64454;51.984;9.838;2023-06-22T06:31:24;100478.00;;;20.70
75822;BMP180;64454;51.984;9.838;2023-06-22T06:33:54;100477.00;;;20.60
75822;BMP180;64454;51.984;9.838;2023-06-22T06:36:21;100479.00;;;20.60
75822;BMP180;64454;51.984;9.838;2023-06-22T06:38:47;100470.00;;;20.60
75822;BMP180;64454;51.984;9.838;2023-06-22T06:41:15;100482.00;;;20.70
75822;BMP180;64454;51.984;9.838;2023-06-22T06:43:42;100482.00;;;20.70
75822;BMP180;64454;51.984;9.838;2023-06-22T06:46:09;100488.00;;;20.60
75822;BMP180;64454;51.984;9.838;2023-06-22T06:48:37;100489.00;;;20.60
75822;BMP180;64454;51.984;9.838;2023-06-22T06:51:05;100483.00;;;20.60
75822;BMP180;64454;51.984;9.838;2023-06-22T06:53:35;100484.00;;;20.40
75822;BMP180;64454;51.984;9.838;2023-06-22T06:56:02;100478.00;;;20.40
75822;BMP180;64454;51.984;9.838;2023-06-22T06:58:30;100473.00;;;20.50
75822;BMP180;64454;51.984;9.838;2023-06-22T07:00:58;100469.00;;;20.90
75822;BMP180;64454;51.984;9.838;2023-06-22T07:03:25;100476.00;;;21.10
75822;BMP180;64454;51.984;9.838;2023-06-22T07:05:53;100473.00;;;21.10
75822;BMP180;64454;51.984;9.838;2023-06-22T07:08:19;100463.00;;;21.40
75822;BMP180;64454;51.984;9.838;2023-06-22T07:10:46;100469.00;;;21.60
75822;BMP180;64454;51.984;9.838;2023-06-22T07:13:13;100467.00;;;22.40
75822;BMP180;64454;51.984;9.838;2023-06-22T07:15:40;100471.00;;;22.70
75822;BMP180;64454;51.984;9.838;2023-06-22T07:18:07;100468.00;;;22.40
75822;BMP180;64454;51.984;9.838;2023-06-22T07:20:34;100461.00;;;22.30
75822;BMP180;64454;51.984;9.838;2023-06-22T07:23:02;100463.00;;;22.00
75822;BMP180;64454;51.984;9.838;2023-06-22T07:25:29;100460.00;;;22.00
75822;BMP180;64454;51.984;9.838;2023-06-22T07:28:03;100466.00;;;22.20
75822;BMP180;64454;51.984;9.838;2023-06-22T07:30:31;100470.00;;;22.30
75822;BMP180;64454;51.984;9.838;2023-06-22T07:32:58;100472.00;;;22.20
75822;BMP180;64454;51.984;9.838;2023-06-22T07:35:29;100469.00;;;22.50
75822;BMP180;64454;51.984;9.838;2023-06-22T07:37:56;100466.00;;;22.40
75822;BMP180;64454;51.984;9.838;2023-06-22T07:40:24;100461.00;;;22.10
75822;BMP180;64454;51.984;9.838;2023-06-22T07:42:51;100463.00;;;22.10
75822;BMP180;64454;51.984;9.838;2023-06-22T07:45:19;100468.00;;;22.30
75822;BMP180;64454;51.984;9.838;2023-06-22T07:47:46;100462.00;;;22.20
75822;BMP180;64454;51.984;9.838;2023-06-22T07:50:12;100462.00;;;21.80
75822;BMP180;64454;51.984;9.838;2023-06-22T07:52:39;100466.00;;;22.50
75822;BMP180;64454;51.984;9.838;2023-06-22T07:55:07;100464.00;;;22.30
75822;BMP180;64454;51.984;9.838;2023-06-22T07:57:35;100457.00;;;22.40
75822;BMP180;64454;51.984;9.838;2023-06-22T08:00:05;100451.00;;;22.50
75822;BMP180;64454;51.984;9.838;2023-06-22T08:02:38;100453.00;;;22.40
75822;BMP180;64454;51.984;9.838;2023-06-22T08:05:06;100457.00;;;22.70
75822;BMP180;64454;51.984;9.838;2023-06-22T08:07:34;100453.00;;;22.70
75822;BMP180;64454;51.984;9.838;2023-06-22T08:10:01;100448.00;;;22.50
75822;BMP180;64454;51.984;9.838;2023-06-22T08:12:28;100449.00;;;22.40
75822;BMP180;64454;51.984;9.838;2023-06-22T08:14:56;100453.00;;;22.30
75822;BMP180;64454;51.984;9.838;2023-06-22T08:17:23;100457.00;;;22.40
75822;BMP180;64454;51.984;9.838;2023-06-22T08:19:50;100461.00;;;22.90
75822;BMP180;64454;51.984;9.838;2023-06-22T08:22:17;100454.00;;;23.00
75822;BMP180;64454;51.984;9.838;2023-06-22T08:24:44;100457.00;;;22.70
75822;BMP180;64454;51.984;9.838;2023-06-22T08:27:11;100463.00;;;22.50
75822;BMP180;64454;51.984;9.838;2023-06-22T08:29:38;100460.00;;;22.50
75822;BMP180;64454;51.984;9.838;2023-06-22T08:32:09;100458.00;;;22.80
75822;BMP180;64454;51.984;9.838;2023-06-22T08:34:36;100469.00;;;22.60
75822;BMP180;64454;51.984;9.838;2023-06-22T08:37:03;100472.00;;;22.70
75822;BMP180;64454;51.984;9.838;2023-06-22T08:39:31;100469.00;;;22.60
75822;BMP180;64454;51.984;9.838;2023-06-22T08:41:58;100475.00;;;22.30
75822;BMP180;64454;51.984;9.838;2023-06-22T08:44:25;100467.00;;;22.40
75822;BMP180;64454;51.984;9.838;2023-06-22T08:46:52;100464.00;;;22.50
75822;BMP180;64454;51.984;9.838;2023-06-22T08:49:21;100456.00;;;22.80
75822;BMP180;64454;51.984;9.838;2023-06-22T08:51:48;100451.00;;;22.70
75822;BMP180;64454;51.984;9.838;2023-06-22T08:54:19;100442.00;;;23.10
75822;BMP180;64454;51.984;9.838;2023-06-22T08:56:47;100441.00;;;23.10
75822;BMP180;64454;51.984;9.838;2023-06-22T08:59:15;100436.00;;;23.70
75822;BMP180;64454;51.984;9.838;2023-06-22T09:01:42;100420.00;;;23.90
75822;BMP180;64454;51.984;9.838;2023-06-22T09:04:11;100399.00;;;24.60
75822;BMP180;64454;51.984;9.838;2023-06-22T09:06:39;100405.00;;;24.80
75822;BMP180;64454;51.984;9.838;2023-06-22T09:09:10;100420.00;;;24.70
75822;BMP180;64454;51.984;9.838;2023-06-22T09:11:37;100418.00;;;24.80
75822;BMP180;64454;51.984;9.838;2023-06-22T09:14:04;100425.00;;;25.00
75822;BMP180;64454;51.984;9.838;2023-06-22T09:16:32;100420.00;;;24.80
75822;BMP180;64454;51.984;9.838;2023-06-22T09:18:58;100424.00;;;24.20
75822;BMP180;64454;51.984;9.838;2023-06-22T09:21:25;100419.00;;;24.40
75822;BMP180;64454;51.984;9.838;2023-06-22T09:23:53;100409.00;;;24.30
75822;BMP180;64454;51.984;9.838;2023-06-22T09:26:21;100413.00;;;25.30
75822;BMP180;64454;51.984;9.838;2023-06-22T09:28:48;100403.00;;;25.70
75822;BMP180;64454;51.984;9.838;2023-06-22T09:31:14;100402.00;;;25.90
75822;BMP180;64454;51.984;9.838;2023-06-22T09:33:42;100400.00;;;25.60
75822;BMP180;64454;51.984;9.838;2023-06-22T09:36:10;100396.00;;;25.60
75822;BMP180;64454;51.984;9.838;2023-06-22T09:38:36;100386.00;;;26.00
75822;BMP180;64454;51.984;9.838;2023-06-22T09:41:05;100391.00;;;26.30
75822;BMP180;64454;51.984;9.838;2023-06-22T09:43:33;100392.00;;;26.20
75822;BMP180;64454;51.984;9.838;2023-06-22T09:46:01;100377.00;;;26.10
75822;BMP180;64454;51.984;9.838;2023-06-22T09:48:28;100380.00;;;26.80
75822;BMP180;64454;51.984;9.838;2023-06-22T09:50:56;100388.00;;;27.00
75822;BMP180;64454;51.984;9.838;2023-06-22T09:53:23;100386.00;;;27.00
75822;BMP180;64454;51.984;9.838;2023-06-22T09:55:50;100392.00;;;26.80
75822;BMP180;64454;51.984;9.838;2023-06-22T09:58:18;100388.00;;;28.10
75822;BMP180;64454;51.984;9.838;2023-06-22T10:00:44;100378.00;;;28.10
75822;BMP180;64454;51.984;9.838;2023-06-22T10:03:11;100378.00;;;28.70
75822;BMP180;64454;51.984;9.838;2023-06-22T10:05:38;100374.00;;;28.80
75822;BMP180;64454;51.984;9.838;2023-06-22T10:08:05;100379.00;;;28.80
75822;BMP180;64454;51.984;9.838;2023-06-22T10:10:33;100379.00;;;29.00
75822;BMP180;64454;51.984;9.838;2023-06-22T10:13:08;100376.00;;;28.80
75822;BMP180;64454;51.984;9.838;2023-06-22T10:15:37;100358.00;;;28.70
75822;BMP180;64454;51.984;9.838;2023-06-22T10:18:04;100360.00;;;29.10
75822;BMP180;64454;51.984;9.838;2023-06-22T10:20:31;100357.00;;;29.40
75822;BMP180;64454;51.984;9.838;2023-06-22T10:22:58;100358.00;;;29.60
75822;BMP180;64454;51.984;9.838;2023-06-22T10:25:25;100360.00;;;30.10
75822;BMP180;64454;51.984;9.838;2023-06-22T10:27:51;100357.00;;;30.40
75822;BMP180;64454;51.984;9.838;2023-06-22T10:30:18;100349.00;;;30.20
75822;BMP180;64454;51.984;9.838;2023-06-22T10:32:46;100353.00;;;29.80
75822;BMP180;64454;51.984;9.838;2023-06-22T10:35:13;100356.00;;;30.10
75822;BMP180;64454;51.984;9.838;2023-06-22T10:37:42;100355.00;;;30.30
75822;BMP180;64454;51.984;9.838;2023-06-22T10:40:11;100350.00;;;30.50
75822;BMP180;64454;51.984;9.838;2023-06-22T10:42:39;100350.00;;;30.40
75822;BMP180;64454;51.984;9.838;2023-06-22T10:45:07;100344.00;;;30.10
75822;BMP180;64454;51.984;9.838;2023-06-22T10:47:34;100342.00;;;30.10
75822;BMP180;64454;51.984;9.838;2023-06-22T10:50:04;100335.00;;;30.30
75822;BMP180;64454;51.984;9.838;2023-06-22T10:52:31;100324.00;;;30.60
75822;BMP180;64454;51.984;9.838;2023-06-22T10:54:58;100335.00;;;30.40
75822;BMP180;64454;51.984;9.838;2023-06-22T10:57:25;100332.00;;;30.60
75822;BMP180;64454;51.984;9.838;2023-06-22T10:59:53;100323.00;;;30.70
75822;BMP180;64454;51.984;9.838;2023-06-22T11:02:20;100320.00;;;31.30
75822;BMP180;64454;51.984;9.838;2023-06-22T11:04:47;100320.00;;;31.30
75822;BMP180;64454;51.984;9.838;2023-06-22T11:07:15;100306.00;;;30.60
75822;BMP180;64454;51.984;9.838;2023-06-22T11:09:43;100300.00;;;30.40
75822;BMP180;64454;51.984;9.838;2023-06-22T11:12:10;100303.00;;;31.00
75822;BMP180;64454;51.984;9.838;2023-06-22T11:14:37;100303.00;;;30.50
75822;BMP180;64454;51.984;9.838;2023-06-22T11:17:04;100299.00;;;29.60
75822;BMP180;64454;51.984;9.838;2023-06-22T11:19:31;100296.00;;;29.90
75822;BMP180;64454;51.984;9.838;2023-06-22T11:21:58;100289.00;;;30.30
75822;BMP180;64454;51.984;9.838;2023-06-22T11:24:26;100285.00;;;30.40
75822;BMP180;64454;51.984;9.838;2023-06-22T11:26:53;100291.00;;;30.50
75822;BMP180;64454;51.984;9.838;2023-06-22T11:29:20;100283.00;;;30.80
75822;BMP180;64454;51.984;9.838;2023-06-22T11:31:47;100270.00;;;30.70
75822;BMP180;64454;51.984;9.838;2023-06-22T11:34:16;100270.00;;;31.50
75822;BMP180;64454;51.984;9.838;2023-06-22T11:36:44;100266.00;;;31.90
75822;BMP180;64454;51.984;9.838;2023-06-22T11:39:13;100256.00;;;31.10
75822;BMP180;64454;51.984;9.838;2023-06-22T11:41:42;100260.00;;;31.50
75822;BMP180;64454;51.984;9.838;2023-06-22T11:44:09;100262.00;;;31.20
75822;BMP180;64454;51.984;9.838;2023-06-22T11:46:36;100254.00;;;31.00
75822;BMP180;64454;51.984;9.838;2023-06-22T11:49:03;100251.00;;;31.50
75822;BMP180;64454;51.984;9.838;2023-06-22T11:51:30;100246.00;;;31.80
75822;BMP180;64454;51.984;9.838;2023-06-22T11:53:57;100237.00;;;31.80
75822;BMP180;64454;51.984;9.838;2023-06-22T11:56:24;100229.00;;;32.10
75822;BMP180;64454;51.984;9.838;2023-06-22T11:58:54;100233.00;;;32.40
75822;BMP180;64454;51.984;9.838;2023-06-22T12:01:21;100241.00;;;31.10
75822;BMP180;64454;51.984;9.838;2023-06-22T12:03:48;100224.00;;;30.70
75822;BMP180;64454;51.984;9.838;2023-06-22T12:06:14;100228.00;;;30.40
75822;BMP180;64454;51.984;9.838;2023-06-22T12:08:41;100222.00;;;29.90
75822;BMP180;64454;51.984;9.838;2023-06-22T12:11:08;100215.00;;;30.60
75822;BMP180;64454;51.984;9.838;2023-06-22T12:13:35;100208.00;;;30.90
75822;BMP180;64454;51.984;9.838;2023-06-22T12:16:04;100195.00;;;31.70
75822;BMP180;64454;51.984;9.838;2023-06-22T12:18:30;100203.00;;;32.00
75822;BMP180;64454;51.984;9.838;2023-06-22T12:20:57;100192.00;;;32.10
75822;BMP180;64454;51.984;9.838;2023-06-22T12:23:24;100188.00;;;32.60
75822;BMP180;64454;51.984;9.838;2023-06-22T12:25:51;100189.00;;;32.20
75822;BMP180;64454;51.984;9.838;2023-06-22T12:28:18;100171.00;;;31.30
75822;BMP180;64454;51.984;9.838;2023-06-22T12:30:44;100175.00;;;31.90
75822;BMP180;64454;51.984;9.838;2023-06-22T12:33:13;100171.00;;;32.10
75822;BMP180;64454;51.984;9.838;2023-06-22T12:35:39;100168.00;;;32.60
75822;BMP180;64454;51.984;9.838;2023-06-22T12:38:06;100174.00;;;31.70
75822;BMP180;64454;51.984;9.838;2023-06-22T12:40:34;100180.00;;;31.00
75822;BMP180;64454;51.984;9.838;2023-06-22T12:43:00;100180.00;;;30.30
75822;BMP180;64454;51.984;9.838;2023-06-22T12:45:27;100179.00;;;30.00
75822;BMP180;64454;51.984;9.838;2023-06-22T12:47:57;100178.00;;;29.60
75822;BMP180;64454;51.984;9.838;2023-06-22T12:50:26;100177.00;;;29.30
75822;BMP180;64454;51.984;9.838;2023-06-22T12:52:53;100178.00;;;29.10
75822;BMP180;64454;51.984;9.838;2023-06-22T12:55:20;100176.00;;;29.00
75822;BMP180;64454;51.984;9.838;2023-06-22T12:57:47;100171.00;;;29.30
75822;BMP180;64454;51.984;9.838;2023-06-22T13:00:15;100155.00;;;29.30
75822;BMP180;64454;51.984;9.838;2023-06-22T13:02:42;100170.00;;;28.80
75822;BMP180;64454;51.984;9.838;2023-06-22T13:05:09;100170.00;;;28.60
75822;BMP180;64454;51.984;9.838;2023-06-22T13:07:37;100168.00;;;28.40
75822;BMP180;64454;51.984;9.838;2023-06-22T13:10:05;100171.00;;;28.70
75822;BMP180;64454;51.984;9.838;2023-06-22T13:12:32;100171.00;;;28.50
75822;BMP180;64454;51.984;9.838;2023-06-22T13:14:59;100181.00;;;28.50
75822;BMP180;64454;51.984;9.838;2023-06-22T13:17:25;100177.00;;;28.10
75822;BMP180;64454;51.984;9.838;2023-06-22T13:19:52;100164.00;;;28.30
75822;BMP180;64454;51.984;9.838;2023-06-22T13:22:30;100152.00;;;28.20
75822;BMP180;64454;51.984;9.838;2023-06-22T13:25:00;100139.00;;;28.10
75822;BMP180;64454;51.984;9.838;2023-06-22T13:27:27;100126.00;;;28.40
75822;BMP180;64454;51.984;9.838;2023-06-22T13:29:54;100135.00;;;28.20
75822;BMP180;64454;51.984;9.838;2023-06-22T13:32:21;100137.00;;;28.30
75822;BMP180;64454;51.984;9.838;2023-06-22T13:34:48;100131.00;;;28.20
75822;BMP180;64454;51.984;9.838;2023-06-22T13:37:15;100133.00;;;27.80
75822;BMP180;64454;51.984;9.838;2023-06-22T13:39:41;100142.00;;;27.60
75822;BMP180;64454;51.984;9.838;2023-06-22T13:42:10;100144.00;;;27.50
75822;BMP180;64454;51.984;9.838;2023-06-22T13:44:36;100134.00;;;27.30
75822;BMP180;64454;51.984;9.838;2023-06-22T13:47:04;100119.00;;;27.40
75822;BMP180;64454;51.984;9.838;2023-06-22T13:49:31;100114.00;;;27.30
75822;BMP180;64454;51.984;9.838;2023-06-22T13:51:59;100105.00;;;27.80
75822;BMP180;64454;51.984;9.838;2023-06-22T13:54:26;100088.00;;;27.90
75822;BMP180;64454;51.984;9.838;2023-06-22T13:56:53;100068.00;;;27.90
75822;BMP180;64454;51.984;9.838;2023-06-22T13:59:22;100061.00;;;28.00
75822;BMP180;64454;51.984;9.838;2023-06-22T14:01:49;100063.00;;;27.90